createdAt,value
2019-02-12T00:00:42.957Z,2.20
2019-02-12T00:03:12.651Z,2.22
2019-02-12T00:05:42.140Z,2.19
2019-02-12T00:08:11.593Z,2.27
2019-02-12T00:10:41.065Z,2.22
2019-02-12T00:13:10.570Z,2.22
2019-02-12T00:15:39.986Z,2.18
2019-02-12T00:18:09.747Z,2.22
2019-02-12T00:20:39.230Z,2.22
2019-02-12T00:23:08.962Z,2.22
2019-02-12T00:25:38.520Z,2.27
2019-02-12T00:28:07.977Z,2.30
2019-02-12T00:30:37.819Z,2.25
2019-02-12T00:33:07.284Z,2.20
2019-02-12T00:35:37.108Z,2.06
2019-02-12T00:38:06.576Z,1.90
2019-02-12T00:40:36.028Z,1.82
2019-02-12T00:43:05.820Z,1.71
2019-02-12T00:45:35.458Z,1.61
2019-02-12T00:48:04.992Z,1.62
2019-02-12T00:50:34.457Z,1.73
2019-02-12T00:53:03.936Z,1.77
2019-02-12T00:55:33.500Z,1.79
2019-02-12T00:58:02.980Z,1.92
2019-02-12T01:00:32.427Z,1.93
2019-02-12T01:03:01.893Z,1.86
2019-02-12T01:05:31.359Z,1.81
2019-02-12T01:08:01.120Z,1.76
2019-02-12T01:10:30.598Z,1.67
2019-02-12T01:13:00.057Z,1.66
2019-02-12T01:15:29.830Z,1.75
2019-02-12T01:17:59.295Z,1.87
2019-02-12T01:20:29.034Z,1.97
2019-02-12T01:22:58.842Z,2.09
2019-02-12T01:25:28.321Z,2.16
2019-02-12T01:27:57.780Z,2.22
2019-02-12T01:30:27.238Z,2.22
2019-02-12T01:32:56.699Z,2.27
2019-02-12T01:35:26.165Z,2.29
2019-02-12T01:37:55.980Z,2.20
2019-02-12T01:40:25.439Z,2.12
2019-02-12T01:42:54.909Z,2.10
2019-02-12T01:45:24.362Z,2.19
2019-02-12T01:47:53.841Z,2.24
2019-02-12T01:50:23.299Z,2.21
2019-02-12T01:52:53.120Z,2.24
2019-02-12T01:55:22.580Z,2.30
2019-02-12T01:57:52.046Z,2.33
2019-02-12T02:00:21.517Z,2.33
2019-02-12T02:02:50.996Z,2.38
2019-02-12T02:05:20.955Z,2.36
2019-02-12T02:07:50.624Z,2.39
2019-02-12T02:10:20.484Z,2.39
2019-02-12T02:12:50.057Z,2.39
2019-02-12T02:15:19.788Z,2.39
2019-02-12T02:17:49.817Z,2.37
2019-02-12T02:20:19.808Z,2.32
2019-02-12T02:22:49.744Z,2.41
2019-02-12T02:25:19.363Z,2.48
2019-02-12T02:27:49.132Z,2.50
2019-02-12T02:30:18.767Z,2.45
2019-02-12T02:32:48.500Z,2.44
2019-02-12T02:35:18.230Z,2.48
2019-02-12T02:37:47.691Z,2.56
2019-02-12T02:40:17.425Z,2.51
2019-02-12T02:42:47.032Z,2.54
2019-02-12T02:45:16.562Z,2.54
2019-02-12T02:47:46.064Z,2.44
2019-02-12T02:50:15.513Z,2.48
2019-02-12T02:52:45.361Z,2.44
2019-02-12T02:55:14.808Z,2.45
2019-02-12T02:57:44.292Z,2.44
2019-02-12T03:00:14.208Z,2.47
2019-02-12T03:02:43.839Z,2.38
2019-02-12T03:05:13.289Z,2.41
2019-02-12T03:07:42.753Z,2.46
2019-02-12T03:10:12.285Z,2.45
2019-02-12T03:12:41.768Z,2.50
2019-02-12T03:15:11.882Z,2.49
2019-02-12T03:17:41.388Z,2.56
2019-02-12T03:20:12.134Z,2.46
2019-02-12T03:22:41.602Z,2.32
2019-02-12T03:25:11.059Z,2.25
2019-02-12T03:27:40.547Z,2.23
2019-02-12T03:30:13.197Z,2.17
2019-02-12T03:32:42.814Z,2.22
2019-02-12T03:35:12.468Z,2.19
2019-02-12T03:37:41.920Z,2.20
2019-02-12T03:40:11.982Z,2.21
2019-02-12T03:42:41.435Z,2.20
2019-02-12T03:45:14.026Z,2.14
2019-02-12T03:47:43.509Z,2.04
2019-02-12T03:50:13.038Z,2.00
2019-02-12T03:52:42.521Z,1.94
2019-02-12T03:55:13.134Z,1.98
2019-02-12T03:57:42.836Z,2.00
2019-02-12T04:00:15.461Z,1.99
2019-02-12T04:03:05.153Z,1.99
2019-02-12T04:05:35.969Z,1.98
2019-02-12T04:08:05.645Z,1.95
2019-02-12T04:10:35.095Z,1.89
2019-02-12T04:13:04.566Z,1.84
2019-02-12T04:15:34.198Z,1.85
2019-02-12T04:18:03.681Z,1.91
2019-02-12T04:20:33.188Z,1.90
2019-02-12T04:23:02.614Z,1.88
2019-02-12T04:25:32.340Z,1.82
2019-02-12T04:28:02.078Z,1.77
2019-02-12T04:30:31.568Z,1.79
2019-02-12T04:33:01.053Z,1.74
2019-02-12T04:35:30.532Z,1.67
2019-02-12T04:37:59.993Z,1.55
2019-02-12T04:40:29.455Z,1.47
2019-02-12T04:42:59.004Z,1.36
2019-02-12T04:45:30.209Z,1.38
2019-02-12T04:47:59.690Z,1.36
2019-02-12T04:50:29.144Z,1.35
2019-02-12T04:52:58.606Z,1.40
2019-02-12T04:55:28.074Z,1.39
2019-02-12T04:57:57.556Z,1.44
2019-02-12T05:00:27.024Z,1.42
2019-02-12T05:02:56.506Z,1.43
2019-02-12T05:05:25.964Z,1.46
2019-02-12T05:07:55.503Z,1.53
2019-02-12T05:10:28.463Z,1.53
2019-02-12T05:12:58.249Z,1.53
2019-02-12T05:15:28.061Z,1.50
2019-02-12T05:17:57.539Z,1.46
2019-02-12T05:20:26.996Z,1.43
2019-02-12T05:22:56.781Z,1.46
2019-02-12T05:25:26.233Z,1.45
2019-02-12T05:27:55.696Z,1.48
2019-02-12T05:30:25.156Z,1.52
2019-02-12T05:32:54.601Z,1.59
2019-02-12T05:35:24.112Z,1.63
2019-02-12T05:37:53.780Z,1.65
2019-02-12T05:40:23.765Z,1.67
2019-02-12T05:42:53.555Z,1.73
2019-02-12T05:45:23.016Z,1.78
2019-02-12T05:47:52.495Z,1.79
2019-02-12T05:50:21.939Z,1.78
2019-02-12T05:52:54.359Z,1.81
2019-02-12T05:55:22.845Z,1.86
2019-02-12T05:57:52.317Z,1.98
2019-02-12T06:00:23.399Z,2.14
2019-02-12T06:02:53.198Z,2.18
2019-02-12T06:05:30.087Z,2.14
2019-02-12T06:07:59.564Z,2.05
2019-02-12T06:10:29.080Z,1.96
2019-02-12T06:12:58.488Z,1.95
2019-02-12T06:15:27.945Z,1.88
2019-02-12T06:17:57.403Z,1.82
2019-02-12T06:20:26.891Z,1.86
2019-02-12T06:23:03.452Z,1.87
2019-02-12T06:25:27.587Z,1.80
2019-02-12T06:27:57.055Z,1.74
2019-02-12T06:30:26.537Z,1.77
2019-02-12T06:32:56.883Z,1.77
2019-02-12T06:35:26.357Z,1.71
2019-02-12T06:37:56.055Z,1.67
2019-02-12T06:40:25.512Z,1.70
2019-02-12T06:42:54.965Z,1.74
2019-02-12T06:45:24.429Z,1.80
2019-02-12T06:47:53.875Z,1.84
2019-02-12T06:50:23.338Z,1.86
2019-02-12T06:52:53.132Z,1.90
2019-02-12T06:55:22.608Z,1.96
2019-02-12T06:57:52.063Z,1.95
2019-02-12T07:00:21.542Z,2.00
2019-02-12T07:03:30.318Z,2.09
2019-02-12T07:06:08.957Z,2.11
2019-02-12T07:08:44.271Z,2.13
2019-02-12T07:11:50.291Z,2.14
2019-02-12T07:14:34.755Z,2.18
2019-02-12T07:17:27.818Z,2.24
2019-02-12T07:20:03.203Z,2.25
2019-02-12T07:23:08.998Z,2.26
2019-02-12T07:25:58.225Z,2.26
2019-02-12T07:28:49.617Z,2.29
2019-02-12T07:31:47.377Z,2.32
2019-02-12T07:34:53.674Z,2.33
2019-02-12T07:37:38.274Z,2.39
2019-02-12T07:40:42.401Z,2.39
2019-02-12T07:43:29.722Z,2.36
2019-02-12T07:46:17.509Z,2.44
2019-02-12T07:48:59.240Z,2.45
2019-02-12T07:51:31.882Z,2.49
2019-02-12T07:54:21.155Z,2.47
2019-02-12T07:57:08.689Z,2.50
2019-02-12T07:59:44.316Z,2.58
2019-02-12T08:02:28.686Z,2.54
2019-02-12T08:05:20.913Z,2.56
2019-02-12T08:08:28.001Z,2.54
2019-02-12T08:11:06.510Z,2.48
2019-02-12T08:13:50.994Z,2.46
2019-02-12T08:16:44.557Z,2.51
2019-02-12T08:19:32.362Z,2.56
2019-02-12T08:22:32.409Z,2.64
2019-02-12T08:25:19.955Z,2.63
2019-02-12T08:28:07.714Z,2.73
2019-02-12T08:30:43.131Z,2.72
2019-02-12T08:33:35.599Z,2.75
2019-02-12T08:36:39.462Z,2.84
2019-02-12T08:39:26.421Z,2.91
2019-02-12T08:42:02.203Z,3.10
2019-02-12T08:44:34.823Z,3.10
2019-02-12T08:47:10.647Z,3.17
2019-02-12T08:49:49.690Z,3.18
2019-02-12T08:52:48.263Z,3.11
2019-02-12T08:55:27.099Z,3.22
2019-02-12T08:58:17.402Z,3.35
2019-02-12T09:00:50.070Z,3.41
2019-02-12T09:03:47.183Z,3.35
2019-02-12T09:06:25.660Z,3.30
2019-02-12T09:09:22.178Z,3.33
2019-02-12T09:12:03.837Z,3.41
2019-02-12T09:14:39.247Z,3.52
2019-02-12T09:17:42.423Z,3.52
2019-02-12T09:20:35.586Z,3.51
2019-02-12T09:23:22.936Z,3.58
2019-02-12T09:26:01.449Z,3.60
2019-02-12T09:28:34.081Z,3.71
2019-02-12T09:31:06.740Z,3.80
2019-02-12T09:34:06.829Z,3.76
2019-02-12T09:36:45.022Z,3.86
2019-02-12T09:39:17.661Z,3.95
2019-02-12T09:42:14.492Z,4.47
2019-02-12T09:44:52.727Z,4.84
2019-02-12T09:47:34.070Z,6.43
2019-02-12T09:50:24.820Z,6.72
2019-02-12T09:53:09.665Z,5.86
2019-02-12T09:55:44.987Z,5.51
2019-02-12T09:58:22.851Z,4.99
2019-02-12T10:00:58.000Z,4.91
2019-02-12T10:03:53.082Z,4.94
2019-02-12T10:06:37.523Z,5.00
2019-02-12T10:09:15.665Z,4.92
2019-02-12T10:12:09.629Z,4.72
2019-02-12T10:14:54.136Z,4.57
2019-02-12T10:17:38.948Z,4.34
2019-02-12T10:20:14.403Z,4.11
2019-02-12T10:23:06.626Z,3.88
2019-02-12T10:25:36.128Z,3.76
2019-02-12T10:28:20.689Z,3.73
2019-02-12T10:30:59.539Z,3.66
2019-02-12T10:33:29.010Z,3.59
2019-02-12T10:35:58.470Z,3.54
2019-02-12T10:38:27.953Z,3.61
2019-02-12T10:40:57.410Z,4.03
2019-02-12T10:43:27.074Z,4.34
2019-02-12T10:45:59.925Z,4.42
2019-02-12T10:48:28.069Z,4.30
2019-02-12T10:50:57.540Z,4.11
2019-02-12T10:53:26.993Z,3.92
2019-02-12T10:55:56.453Z,3.51
2019-02-12T10:58:28.454Z,3.03
2019-02-12T11:00:58.219Z,2.68
2019-02-12T11:03:29.303Z,2.56
2019-02-12T11:05:58.847Z,2.50
2019-02-12T11:08:28.267Z,2.41
2019-02-12T11:10:57.749Z,2.61
2019-02-12T11:13:27.571Z,2.77
2019-02-12T11:15:59.554Z,2.99
2019-02-12T11:18:28.188Z,3.14
2019-02-12T11:20:57.898Z,3.21
2019-02-12T11:23:27.567Z,3.33
2019-02-12T11:25:57.071Z,3.33
2019-02-12T11:28:26.544Z,3.35
2019-02-12T11:30:56.040Z,3.25
2019-02-12T11:33:25.880Z,3.14
2019-02-12T11:35:55.690Z,2.75
2019-02-12T11:38:25.190Z,2.45
2019-02-12T11:40:54.605Z,2.24
2019-02-12T11:43:24.096Z,2.03
2019-02-12T11:45:53.544Z,1.76
2019-02-12T11:48:23.027Z,1.72
2019-02-12T11:50:52.489Z,1.61
2019-02-12T11:53:21.955Z,1.58
2019-02-12T11:55:51.403Z,1.62
2019-02-12T11:58:20.872Z,1.61
2019-02-12T12:00:51.984Z,1.58
2019-02-12T12:03:21.786Z,1.46
2019-02-12T12:05:51.295Z,1.56
2019-02-12T12:08:20.738Z,1.61
2019-02-12T12:10:50.200Z,1.73
2019-02-12T12:13:19.675Z,1.86
2019-02-12T12:15:49.143Z,2.01
2019-02-12T12:18:18.609Z,2.35
2019-02-12T12:20:48.119Z,2.68
2019-02-12T12:23:17.577Z,2.84
2019-02-12T12:25:47.087Z,2.99
2019-02-12T12:28:16.548Z,3.07
2019-02-12T12:30:46.012Z,3.13
2019-02-12T12:33:15.760Z,3.05
2019-02-12T12:35:45.211Z,3.04
2019-02-12T12:38:14.993Z,3.10
2019-02-12T12:40:44.464Z,3.03
2019-02-12T12:43:13.924Z,3.23
2019-02-12T12:45:43.384Z,3.41
2019-02-12T12:48:13.214Z,3.56
2019-02-12T12:50:42.655Z,3.41
2019-02-12T12:53:12.131Z,3.51
2019-02-12T12:55:41.933Z,3.50
2019-02-12T12:58:11.768Z,3.36
2019-02-12T13:00:41.583Z,3.37
2019-02-12T13:03:11.149Z,3.47
2019-02-12T13:05:40.677Z,3.42
2019-02-12T13:08:10.150Z,3.46
2019-02-12T13:10:39.604Z,3.60
2019-02-12T13:13:09.087Z,3.70
2019-02-12T13:15:38.546Z,3.79
2019-02-12T13:18:08.296Z,3.86
2019-02-12T13:20:37.752Z,3.91
2019-02-12T13:23:07.218Z,3.94
2019-02-12T13:25:36.667Z,4.00
2019-02-12T13:28:07.406Z,4.05
2019-02-12T13:30:36.983Z,4.07
2019-02-12T13:33:06.442Z,3.98
2019-02-12T13:35:36.089Z,4.00
2019-02-12T13:38:05.551Z,3.93
2019-02-12T13:40:35.018Z,3.95
2019-02-12T13:43:04.514Z,3.95
2019-02-12T13:45:34.398Z,4.00
2019-02-12T13:48:04.531Z,3.93
2019-02-12T13:50:34.527Z,3.97
2019-02-12T13:53:04.004Z,3.96
2019-02-12T13:55:33.445Z,4.05
2019-02-12T13:58:02.901Z,4.09
2019-02-12T14:00:32.371Z,4.00
2019-02-12T14:03:01.839Z,3.96
2019-02-12T14:05:31.325Z,4.06
2019-02-12T14:08:00.791Z,4.07
2019-02-12T14:10:30.589Z,4.08
2019-02-12T14:13:00.057Z,4.14
2019-02-12T14:15:29.523Z,4.34
2019-02-12T14:17:59.333Z,4.43
2019-02-12T14:20:28.814Z,4.52
2019-02-12T14:22:58.261Z,4.39
2019-02-12T14:25:27.768Z,4.33
2019-02-12T14:27:57.210Z,4.30
2019-02-12T14:30:26.715Z,4.23
2019-02-12T14:32:56.198Z,4.22
2019-02-12T14:35:25.661Z,4.33
2019-02-12T14:37:55.102Z,4.27
2019-02-12T14:40:24.579Z,4.34
2019-02-12T14:42:54.037Z,4.38
2019-02-12T14:45:23.681Z,4.38
2019-02-12T14:47:53.165Z,4.40
2019-02-12T14:50:22.896Z,4.51
2019-02-12T14:52:52.362Z,4.54
2019-02-12T14:55:21.836Z,4.65
2019-02-12T14:57:51.286Z,4.52
2019-02-12T15:00:21.134Z,4.35
2019-02-12T15:02:50.587Z,4.37
2019-02-12T15:05:20.075Z,4.32
2019-02-12T15:07:49.532Z,4.23
2019-02-12T15:10:19.008Z,4.21
2019-02-12T15:12:48.771Z,4.08
2019-02-12T15:15:18.233Z,4.05
2019-02-12T15:17:47.736Z,3.95
2019-02-12T15:20:17.614Z,3.90
2019-02-12T15:22:47.394Z,4.00
2019-02-12T15:25:16.913Z,3.91
2019-02-12T15:27:46.377Z,3.89
2019-02-12T15:30:18.069Z,3.88
2019-02-12T15:32:47.555Z,3.90
2019-02-12T15:35:17.007Z,3.85
2019-02-12T15:37:46.451Z,3.87
2019-02-12T15:40:22.046Z,3.78
2019-02-12T15:42:51.512Z,3.79
2019-02-12T15:45:22.420Z,3.70
2019-02-12T15:47:51.967Z,3.64
2019-02-12T15:50:21.467Z,3.62
2019-02-12T15:52:50.909Z,3.58
2019-02-12T15:55:20.382Z,3.52
2019-02-12T15:57:50.376Z,3.43
2019-02-12T16:00:20.920Z,3.31
2019-02-12T16:02:51.106Z,3.22
2019-02-12T16:05:21.090Z,3.16
2019-02-12T16:07:50.557Z,3.02
2019-02-12T16:10:20.773Z,2.90
2019-02-12T16:12:51.620Z,2.73
2019-02-12T16:15:24.022Z,2.66
2019-02-12T16:17:52.799Z,2.55
2019-02-12T16:20:22.291Z,2.38
2019-02-12T16:22:51.762Z,2.37
2019-02-12T16:25:21.235Z,2.33
2019-02-12T16:27:50.715Z,2.27
2019-02-12T16:30:21.479Z,2.22
2019-02-12T16:32:50.962Z,2.16
2019-02-12T16:35:20.442Z,2.05
2019-02-12T16:37:49.921Z,1.95
2019-02-12T16:40:19.697Z,1.83
2019-02-12T16:42:49.169Z,1.73
2019-02-12T16:45:29.295Z,1.66
2019-02-12T16:48:00.167Z,1.59
2019-02-12T16:50:29.812Z,1.50
2019-02-12T16:52:59.297Z,1.36
2019-02-12T16:55:29.148Z,1.27
2019-02-12T16:57:58.616Z,1.17
2019-02-12T17:00:28.094Z,1.05
2019-02-12T17:02:57.616Z,0.95
2019-02-12T17:05:27.090Z,0.89
2019-02-12T17:07:56.566Z,0.80
2019-02-12T17:10:26.045Z,0.69
2019-02-12T17:12:55.517Z,0.65
2019-02-12T17:15:25.027Z,0.66
2019-02-12T17:17:54.483Z,0.55
2019-02-12T17:20:25.004Z,0.48
2019-02-12T17:22:54.740Z,0.47
2019-02-12T17:25:24.207Z,0.39
2019-02-12T17:27:53.693Z,0.36
2019-02-12T17:30:23.169Z,0.28
2019-02-12T17:32:52.944Z,0.18
2019-02-12T17:35:22.437Z,0.19
2019-02-12T17:37:51.938Z,0.21
2019-02-12T17:40:21.437Z,0.22
2019-02-12T17:42:51.292Z,0.17
2019-02-12T17:45:20.793Z,0.22
2019-02-12T17:47:50.277Z,0.20
2019-02-12T17:50:19.755Z,0.31
2019-02-12T17:52:49.282Z,0.39
2019-02-12T17:55:18.940Z,0.40
2019-02-12T17:57:48.421Z,0.41
2019-02-12T18:00:20.894Z,0.39
2019-02-12T18:02:50.702Z,0.41
2019-02-12T18:05:20.185Z,0.48
2019-02-12T18:07:49.725Z,0.52
2019-02-12T18:10:19.249Z,0.63
2019-02-12T18:12:48.695Z,0.74
2019-02-12T18:15:18.171Z,0.97
2019-02-12T18:17:47.958Z,1.04
2019-02-12T18:20:26.094Z,1.07
2019-02-12T18:22:49.231Z,1.09
2019-02-12T18:25:18.737Z,1.16
2019-02-12T18:27:48.202Z,1.22
2019-02-12T18:30:18.312Z,1.21
2019-02-12T18:32:47.918Z,1.18
2019-02-12T18:35:17.473Z,1.15
2019-02-12T18:37:47.078Z,1.11
2019-02-12T18:40:17.890Z,1.06
2019-02-12T18:42:47.372Z,0.99
2019-02-12T18:45:19.235Z,0.96
2019-02-12T18:47:49.095Z,1.02
2019-02-12T18:50:18.893Z,1.03
2019-02-12T18:52:48.367Z,1.07
2019-02-12T18:55:18.108Z,1.12
2019-02-12T18:57:47.599Z,1.21
2019-02-12T19:00:22.082Z,1.33
2019-02-12T19:02:51.588Z,1.43
2019-02-12T19:05:21.086Z,1.52
2019-02-12T19:07:50.573Z,1.60
2019-02-12T19:10:20.316Z,1.68
2019-02-12T19:12:49.771Z,1.78
2019-02-12T19:15:20.803Z,1.85
2019-02-12T19:18:02.436Z,1.97
2019-02-12T19:20:31.898Z,2.00
2019-02-12T19:23:01.982Z,2.06
2019-02-12T19:25:31.936Z,2.09
2019-02-12T19:28:02.082Z,2.13
2019-02-12T19:30:31.879Z,2.17
2019-02-12T19:33:01.360Z,2.23
2019-02-12T19:35:30.883Z,2.24
2019-02-12T19:38:00.336Z,2.28
2019-02-12T19:40:29.791Z,2.31
2019-02-12T19:42:59.255Z,2.33
2019-02-12T19:45:28.710Z,2.31
2019-02-12T19:47:58.186Z,2.27
2019-02-12T19:50:27.952Z,2.22
2019-02-12T19:52:57.987Z,2.22
2019-02-12T19:55:27.446Z,2.27
2019-02-12T19:57:56.939Z,2.23
2019-02-12T20:00:26.651Z,2.25
2019-02-12T20:02:56.141Z,2.26
2019-02-12T20:05:25.597Z,2.31
2019-02-12T20:07:55.073Z,2.32
2019-02-12T20:10:24.892Z,2.34
2019-02-12T20:12:54.384Z,2.36
2019-02-12T20:15:23.825Z,2.42
2019-02-12T20:17:53.501Z,2.49
2019-02-12T20:20:22.990Z,2.61
2019-02-12T20:22:52.494Z,2.65
2019-02-12T20:25:21.955Z,2.57
2019-02-12T20:27:51.752Z,2.56
2019-02-12T20:30:21.569Z,2.61
2019-02-12T20:32:51.044Z,2.63
2019-02-12T20:35:21.937Z,2.54
2019-02-12T20:37:51.581Z,2.48
2019-02-12T20:40:21.327Z,2.49
2019-02-12T20:42:50.789Z,2.52
2019-02-12T20:45:20.331Z,2.46
2019-02-12T20:47:49.792Z,2.44
2019-02-12T20:50:21.666Z,2.42
2019-02-12T20:52:52.620Z,2.52
2019-02-12T20:55:22.085Z,2.59
2019-02-12T20:57:51.557Z,2.62
2019-02-12T21:00:23.353Z,2.63
2019-02-12T21:02:52.864Z,2.61
2019-02-12T21:05:22.332Z,2.63
2019-02-12T21:07:51.808Z,2.59
2019-02-12T21:10:22.614Z,2.58
2019-02-12T21:12:52.104Z,2.59
2019-02-12T21:15:27.074Z,2.59
2019-02-12T21:17:56.538Z,2.64
2019-02-12T21:20:25.997Z,2.67
2019-02-12T21:22:56.269Z,2.73
2019-02-12T21:25:25.737Z,2.73
2019-02-12T21:27:55.211Z,2.72
2019-02-12T21:30:30.716Z,2.73
2019-02-12T21:33:00.186Z,2.72
2019-02-12T21:35:29.665Z,2.69
2019-02-12T21:38:00.136Z,2.66
2019-02-12T21:40:29.592Z,2.63
2019-02-12T21:42:59.103Z,2.50
2019-02-12T21:45:28.555Z,2.51
2019-02-12T21:47:58.384Z,2.43
2019-02-12T21:50:27.842Z,2.41
2019-02-12T21:52:57.583Z,2.41
2019-02-12T21:55:27.405Z,2.36
2019-02-12T21:57:58.813Z,2.40
2019-02-12T22:00:28.363Z,2.42
2019-02-12T22:02:57.823Z,2.43
2019-02-12T22:05:27.517Z,2.43
2019-02-12T22:07:56.976Z,2.40
2019-02-12T22:10:28.533Z,2.45
2019-02-12T22:12:57.960Z,2.52
2019-02-12T22:15:27.448Z,2.49
2019-02-12T22:17:57.282Z,2.56
2019-02-12T22:20:26.837Z,2.61
2019-02-12T22:22:56.295Z,2.62
2019-02-12T22:25:25.761Z,2.58
2019-02-12T22:27:55.580Z,2.63
2019-02-12T22:30:25.795Z,2.69
2019-02-12T22:32:55.635Z,2.70
2019-02-12T22:35:26.753Z,2.78
2019-02-12T22:37:56.208Z,2.84
2019-02-12T22:40:25.668Z,2.92
2019-02-12T22:42:55.114Z,2.91
2019-02-12T22:45:25.616Z,2.97
2019-02-12T22:47:55.063Z,3.01
2019-02-12T22:50:24.531Z,3.02
2019-02-12T22:52:53.988Z,3.06
2019-02-12T22:55:23.512Z,3.13
2019-02-12T22:57:52.962Z,3.14
2019-02-12T23:00:26.785Z,3.12
2019-02-12T23:02:56.257Z,3.17
2019-02-12T23:05:25.978Z,3.25
2019-02-12T23:07:55.480Z,3.24
2019-02-12T23:10:24.937Z,3.26
2019-02-12T23:12:54.416Z,3.26
2019-02-12T23:15:24.231Z,3.28
2019-02-12T23:17:53.721Z,3.30
2019-02-12T23:20:23.503Z,3.32
2019-02-12T23:22:53.215Z,3.36
2019-02-12T23:25:22.688Z,3.39
2019-02-12T23:27:57.548Z,3.36
2019-02-12T23:30:23.592Z,3.36
2019-02-12T23:32:53.211Z,3.35
2019-02-12T23:35:22.936Z,3.33
2019-02-12T23:37:52.384Z,3.26
2019-02-12T23:40:21.875Z,3.17
2019-02-12T23:42:51.341Z,3.21
2019-02-12T23:45:20.859Z,3.15
2019-02-12T23:47:50.322Z,3.17
2019-02-12T23:50:19.795Z,3.20
2019-02-12T23:52:49.302Z,3.17
2019-02-12T23:55:18.780Z,3.13
2019-02-12T23:57:48.237Z,3.13
